Time;durP1;ratioP1;P1;durP2;ratioP2;P2;SDS_P1;SDS_P2;PMS_P1;PMS_P2;Temp;Humidity;BMP_temperature;BMP_pressure;BME280_temperature;BME280_humidity;BME280_pressure;Samples;Min_cycle;Max_cycle;Signal;HPM_P1;HPM_P2
2022/03/18 00:00:47;;;;;;;21.88;12.05;;;;;;;0.12;100.00;102249.06;5050545;28;20487;-68
2022/03/18 00:03:13;;;;;;;23.38;14.00;;;;;;;0.29;100.00;102236.63;5051183;28;20059;-69
2022/03/18 00:05:39;;;;;;;27.55;13.55;;;;;;;0.40;100.00;102250.50;5051006;28;20025;-69
2022/03/18 00:08:05;;;;;;;23.33;13.32;;;;;;;0.09;100.00;102224.78;5050698;28;20370;-69
2022/03/18 00:10:31;;;;;;;22.48;13.07;;;;;;;-0.53;100.00;102224.03;5050897;28;20033;-69
2022/03/18 00:12:57;;;;;;;21.38;11.27;;;;;;;-0.04;100.00;102229.94;5050867;28;20486;-68
2022/03/18 00:15:24;;;;;;;22.27;11.55;;;;;;;0.17;100.00;102266.00;5050249;28;20112;-68
2022/03/18 00:17:51;;;;;;;21.40;12.65;;;;;;;-0.21;100.00;102254.06;5050819;28;20033;-69
2022/03/18 00:20:17;;;;;;;29.65;16.05;;;;;;;-0.48;100.00;102254.25;5050745;28;20029;-69
2022/03/18 00:22:44;;;;;;;28.60;14.18;;;;;;;-0.09;100.00;102261.31;5050458;28;20143;-68
2022/03/18 00:25:11;;;;;;;20.05;12.32;;;;;;;-0.15;100.00;102256.88;5050506;28;20087;-68
2022/03/18 00:27:38;;;;;;;21.17;11.75;;;;;;;-0.52;100.00;102238.25;5050407;28;20055;-67
2022/03/18 00:30:05;;;;;;;17.13;10.70;;;;;;;-0.49;100.00;102228.41;5050465;28;20033;-69
2022/03/18 00:32:30;;;;;;;15.18;10.88;;;;;;;-0.87;100.00;102267.94;5050620;28;20031;-69
2022/03/18 00:34:56;;;;;;;22.77;13.38;;;;;;;-0.37;100.00;102253.16;5050411;28;20037;-67
2022/03/18 00:37:21;;;;;;;22.20;13.82;;;;;;;-0.53;100.00;102249.00;5050222;28;20048;-66
2022/03/18 00:39:47;;;;;;;30.70;17.17;;;;;;;-0.83;100.00;102219.06;5050403;28;20027;-66
2022/03/18 00:42:12;;;;;;;26.30;15.98;;;;;;;-0.29;100.00;102221.94;5050199;28;20147;-66
2022/03/18 00:44:39;;;;;;;26.98;15.85;;;;;;;-0.32;100.00;102247.63;5050292;28;20029;-66
2022/03/18 00:52:03;;;;;;;27.42;16.50;;;;;;;-0.90;100.00;102210.38;5050472;28;20410;-69
2022/03/18 00:52:39;;;;;;;23.30;14.43;;;;;;;-0.52;100.00;102243.25;5050427;28;20126;-69
2022/03/18 00:55:06;;;;;;;21.85;14.38;;;;;;;-0.81;100.00;102238.31;5050016;28;20455;-69
2022/03/18 00:57:31;;;;;;;23.15;15.05;;;;;;;-0.88;100.00;102241.25;5050335;28;20064;-67
2022/03/18 00:59:57;;;;;;;21.08;13.15;;;;;;;-1.00;100.00;102215.63;5032479;28;20513;-66
2022/03/18 01:02:22;;;;;;;20.50;12.73;;;;;;;-0.96;100.00;102253.34;5072133;22;20062;-69
2022/03/18 01:04:50;;;;;;;19.73;12.73;;;;;;;-0.71;100.00;102210.56;5017412;28;20116;-69
2022/03/18 01:07:16;;;;;;;19.40;12.82;;;;;;;-0.76;100.00;102224.44;4674044;28;10000397;-69
2022/03/18 01:09:41;;;;;;;19.95;13.65;;;;;;;-1.00;100.00;102243.09;5030372;28;20022;-65
2022/03/18 01:12:07;;;;;;;20.17;13.07;;;;;;;-0.58;100.00;102257.91;5030157;28;20035;-69
2022/03/18 01:14:33;;;;;;;21.98;13.68;;;;;;;-0.75;100.00;102251.13;5030299;28;20076;-71
2022/03/18 01:16:58;;;;;;;19.30;12.65;;;;;;;-0.55;100.00;102248.06;5030308;28;20060;-66
2022/03/18 01:19:24;;;;;;;20.02;13.27;;;;;;;-0.84;100.00;102248.13;5030039;28;20063;-67
2022/03/18 01:21:49;;;;;;;22.38;13.40;;;;;;;-1.10;100.00;102221.75;5012664;28;20037;-70
2022/03/18 01:24:15;;;;;;;21.00;12.65;;;;;;;-0.79;100.00;102189.31;5030377;28;20026;-69
2022/03/18 01:26:40;;;;;;;19.60;13.05;;;;;;;-0.41;100.00;102247.16;5029878;28;20034;-67
2022/03/18 01:29:06;;;;;;;21.45;13.30;;;;;;;-1.11;100.00;102216.69;5012613;28;20033;-67
2022/03/18 01:31:32;;;;;;;25.85;17.25;;;;;;;-1.18;100.00;102227.09;5030336;28;20488;-67
2022/03/18 01:33:57;;;;;;;28.73;17.00;;;;;;;-0.94;100.00;102240.94;5033602;28;20045;-70
2022/03/18 01:36:23;;;;;;;31.58;20.45;;;;;;;-1.05;100.00;102222.03;5029367;28;20400;-66
2022/03/18 01:38:48;;;;;;;33.20;19.23;;;;;;;-1.58;100.00;102213.16;4996709;28;20025;-69
2022/03/18 01:41:14;;;;;;;32.67;17.50;;;;;;;-1.41;100.00;102182.56;5013949;28;20026;-70
2022/03/18 01:43:42;;;;;;;32.25;17.98;;;;;;;-1.24;100.00;102239.22;5013988;28;20108;-67
2022/03/18 01:46:08;;;;;;;27.23;17.08;;;;;;;-1.45;100.00;102248.00;5013787;28;20030;-66
2022/03/18 01:48:34;;;;;;;31.35;18.80;;;;;;;-1.96;100.00;102239.25;5013309;28;20065;-68
2022/03/18 01:51:00;;;;;;;30.38;17.67;;;;;;;-1.59;100.00;102224.78;5013942;28;20112;-66
2022/03/18 01:53:26;;;;;;;28.77;16.45;;;;;;;-1.22;100.00;102250.16;5013650;28;20084;-65
2022/03/18 01:55:54;;;;;;;26.70;15.93;;;;;;;-1.66;100.00;102251.78;5013764;28;20077;-69
2022/03/18 01:58:20;;;;;;;27.67;15.27;;;;;;;-1.15;100.00;102247.25;4996214;28;20045;-67
2022/03/18 02:00:46;;;;;;;26.95;15.48;;;;;;;-1.47;100.00;102257.03;4995591;28;20414;-66
2022/03/18 02:03:11;;;;;;;25.20;15.68;;;;;;;-1.30;100.00;102263.81;5015185;28;20053;-69
2022/03/18 02:05:37;;;;;;;24.85;15.48;;;;;;;-1.73;100.00;102253.06;5033457;28;20033;-70
2022/03/18 02:08:06;;;;;;;24.95;15.27;;;;;;;-1.30;100.00;102251.34;5033143;28;20536;-69
2022/03/18 02:10:32;;;;;;;22.63;14.07;;;;;;;-0.95;100.00;102229.22;5033479;28;20029;-68
2022/03/18 02:12:58;;;;;;;22.65;13.02;;;;;;;-1.13;100.00;102225.72;5033366;28;20383;-68
2022/03/18 02:15:23;;;;;;;19.90;13.50;;;;;;;-1.46;100.00;102241.28;5032891;28;20087;-65
2022/03/18 02:17:48;;;;;;;33.10;18.15;;;;;;;-1.12;100.00;102232.44;5015374;28;20026;-67
2022/03/18 02:20:14;;;;;;;33.80;19.83;;;;;;;-1.41;100.00;102259.88;5016932;28;20579;-69
2022/03/18 02:22:40;;;;;;;28.65;16.75;;;;;;;-1.17;100.00;102259.59;5013084;28;20422;-69
2022/03/18 02:25:09;;;;;;;29.55;17.05;;;;;;;-1.37;100.00;102266.75;5017836;28;20485;-69
2022/03/18 02:27:36;;;;;;;32.60;18.75;;;;;;;-1.34;100.00;102266.94;5032692;28;20503;-68
2022/03/18 02:30:06;;;;;;;35.00;20.25;;;;;;;-1.24;100.00;102225.13;5014822;28;20029;-67
2022/03/18 02:32:31;;;;;;;31.63;18.00;;;;;;;-1.51;100.00;102237.69;5032854;28;20034;-67
2022/03/18 02:34:57;;;;;;;41.00;18.40;;;;;;;-1.85;100.00;102258.19;5032719;28;20088;-67
2022/03/18 02:37:23;;;;;;;45.33;19.77;;;;;;;-1.62;100.00;102253.69;5032718;28;20080;-67
2022/03/18 02:39:48;;;;;;;37.22;18.25;;;;;;;-2.09;100.00;102209.41;5017339;28;20026;-67
2022/03/18 02:42:14;;;;;;;37.00;16.75;;;;;;;-1.78;100.00;102269.34;5012739;28;20423;-68
2022/03/18 02:44:39;;;;;;;19.25;9.35;;;;;;;-1.20;100.00;102278.53;5011405;28;20037;-65
2022/03/18 02:47:05;;;;;;;11.07;7.05;;;;;;;-1.00;100.00;102245.59;5012788;28;20033;-66
2022/03/18 02:49:31;;;;;;;12.65;6.05;;;;;;;-0.68;100.00;102250.69;5012684;28;20030;-67
2022/03/18 02:51:56;;;;;;;9.38;5.78;;;;;;;-0.72;100.00;102261.28;5013075;28;20034;-67
2022/03/18 02:54:22;;;;;;;9.73;5.90;;;;;;;-0.56;100.00;102248.84;5012580;28;20030;-67
2022/03/18 02:56:47;;;;;;;11.35;6.50;;;;;;;-0.42;100.00;102242.94;5012533;28;20511;-67
2022/03/18 02:59:13;;;;;;;11.23;5.97;;;;;;;-0.59;100.00;102250.31;5012410;28;20492;-67
2022/03/18 03:01:38;;;;;;;12.23;6.90;;;;;;;-0.62;100.00;102253.53;4994882;28;20034;-67
2022/03/18 03:04:04;;;;;;;8.90;6.28;;;;;;;-0.45;100.00;102274.38;5005205;28;20022;-67
2022/03/18 03:09:16;;;;;;;9.07;5.85;;;;;;;-0.39;97.79;102283.06;5031938;28;20044;-67
2022/03/18 03:11:43;;;;;;;8.50;5.90;;;;;;;-0.38;95.56;102281.44;5031931;28;20025;-67
2022/03/18 03:14:08;;;;;;;10.32;6.32;;;;;;;-0.32;94.08;102300.09;5031828;28;20167;-67
2022/03/18 03:16:34;;;;;;;15.80;8.13;;;;;;;-0.55;93.14;102277.16;5031884;28;20138;-67
2022/03/18 03:19:02;;;;;;;15.60;6.95;;;;;;;-0.36;92.00;102275.75;5031802;28;20029;-66
2022/03/18 03:21:27;;;;;;;7.88;5.47;;;;;;;-0.30;88.06;102310.19;5030838;28;20022;-68
2022/03/18 03:23:53;;;;;;;13.73;6.72;;;;;;;-0.17;86.66;102300.91;5030308;28;20032;-67
2022/03/18 03:26:18;;;;;;;10.73;6.18;;;;;;;-0.40;86.52;102307.97;5031527;28;20052;-67
2022/03/18 03:28:45;;;;;;;10.07;6.13;;;;;;;-0.08;86.88;102316.38;5031765;28;20407;-67
2022/03/18 03:31:11;;;;;;;9.15;5.88;;;;;;;-0.25;85.27;102317.16;5031684;28;20036;-67
2022/03/18 03:33:37;;;;;;;9.48;5.78;;;;;;;-0.29;84.21;102317.75;5013794;28;20044;-67
2022/03/18 03:36:03;;;;;;;9.18;6.18;;;;;;;-0.55;88.08;102332.97;5031925;28;20037;-67
2022/03/18 03:38:29;;;;;;;8.65;5.85;;;;;;;-0.63;87.10;102291.75;5031390;28;20025;-67
2022/03/18 03:40:54;;;;;;;9.48;6.40;;;;;;;-0.38;87.00;102332.28;5031429;28;20091;-67
2022/03/18 03:43:20;;;;;;;10.95;6.55;;;;;;;-0.52;87.86;102340.66;5022499;28;20037;-67
2022/03/18 03:45:45;;;;;;;9.75;6.13;;;;;;;-0.71;89.37;102305.44;4993767;28;20029;-67
2022/03/18 03:48:11;;;;;;;10.18;6.30;;;;;;;-0.80;87.38;102299.97;5025304;28;20038;-67
2022/03/18 03:50:37;;;;;;;11.07;6.30;;;;;;;-0.63;86.36;102306.72;5031367;28;20037;-67
2022/03/18 03:53:03;;;;;;;10.20;6.38;;;;;;;-0.39;84.74;102344.66;5031297;28;20057;-66
2022/03/18 03:55:29;;;;;;;11.63;6.80;;;;;;;-0.60;83.00;102326.88;5031125;28;20048;-67
2022/03/18 03:57:55;;;;;;;9.23;6.30;;;;;;;-0.88;82.25;102281.19;5031326;28;20032;-67
2022/03/18 04:00:20;;;;;;;11.05;6.57;;;;;;;-0.78;82.43;102305.91;5031145;28;20033;-67
2022/03/18 04:02:46;;;;;;;11.98;6.47;;;;;;;-0.37;82.67;102361.47;5031188;28;20125;-67
2022/03/18 04:05:13;;;;;;;12.32;7.20;;;;;;;-0.43;82.78;102330.28;5013448;28;20554;-67
2022/03/18 04:07:41;;;;;;;13.73;7.32;;;;;;;-0.43;83.53;102350.25;5030930;28;20104;-66
2022/03/18 04:10:09;;;;;;;15.75;8.15;;;;;;;-0.58;81.16;102340.31;5031282;28;20033;-66
2022/03/18 04:12:35;;;;;;;13.27;7.88;;;;;;;-0.38;80.34;102364.75;5030685;28;20033;-67
2022/03/18 04:15:02;;;;;;;14.70;7.97;;;;;;;-0.67;81.32;102322.31;5030931;28;20439;-67
2022/03/18 04:17:40;;;;;;;14.80;8.55;;;;;;;-0.51;81.26;102374.81;5013213;28;20061;-67
2022/03/18 04:20:08;;;;;;;15.27;8.63;;;;;;;-0.24;82.44;102371.31;5030884;28;20078;-67
2022/03/18 04:22:34;;;;;;;15.80;9.15;;;;;;;-0.37;81.98;102378.06;5030754;28;20087;-67
2022/03/18 04:25:00;;;;;;;16.10;9.48;;;;;;;-0.40;82.67;102393.78;5024809;28;20033;-67
2022/03/18 04:27:25;;;;;;;21.02;10.52;;;;;;;-0.68;82.29;102349.69;5010959;28;20030;-67
2022/03/18 04:29:53;;;;;;;19.23;10.52;;;;;;;-0.25;80.94;102394.59;5011210;28;20472;-67
2022/03/18 04:32:18;;;;;;;19.17;10.55;;;;;;;-0.36;79.27;102380.69;5010935;28;20040;-67
2022/03/18 04:34:43;;;;;;;28.40;13.32;;;;;;;-0.53;81.62;102386.38;5010843;28;20030;-67
2022/03/18 04:37:09;;;;;;;21.30;12.32;;;;;;;-0.22;82.10;102356.44;5011032;28;20039;-68
2022/03/18 04:39:34;;;;;;;19.00;11.38;;;;;;;-0.50;77.10;102391.56;4993331;28;20030;-67
2022/03/18 04:42:00;;;;;;;13.90;8.98;;;;;;;-0.36;76.40;102403.16;5010931;28;20022;-67
2022/03/18 04:44:25;;;;;;;13.75;8.98;;;;;;;-0.31;75.11;102398.41;5010954;28;20040;-67
2022/03/18 04:46:51;;;;;;;13.80;8.85;;;;;;;-0.29;76.21;102367.72;5010788;28;20034;-66
2022/03/18 04:49:16;;;;;;;13.68;8.80;;;;;;;-0.62;75.87;102368.38;5001928;28;20092;-66
2022/03/18 04:51:42;;;;;;;26.98;15.15;;;;;;;-0.11;85.75;102396.22;5010547;28;20514;-67
2022/03/18 04:54:07;;;;;;;20.98;12.90;;;;;;;-1.05;100.00;102384.22;5010854;28;20041;-67
2022/03/18 04:59:19;;;;;;;29.00;14.77;;;;;;;0.13;100.00;102410.78;5010525;28;20052;-68
2022/03/18 05:01:45;;;;;;;21.50;11.98;;;;;;;-0.51;100.00;102417.28;5008204;28;20471;-67
2022/03/18 05:04:11;;;;;;;25.33;13.80;;;;;;;-0.50;100.00;102371.56;4990892;28;20041;-67
2022/03/18 05:06:36;;;;;;;23.23;12.52;;;;;;;-0.63;100.00;102419.09;4990653;28;20035;-69
2022/03/18 05:09:02;;;;;;;21.08;14.10;;;;;;;-0.93;100.00;102382.41;4993732;28;20412;-65
2022/03/18 05:11:28;;;;;;;26.52;18.33;;;;;;;-0.54;100.00;102414.63;4994950;28;20026;-67
2022/03/18 05:13:54;;;;;;;26.88;18.98;;;;;;;-0.80;100.00;102362.38;4994742;28;20037;-67
2022/03/18 05:16:20;;;;;;;21.55;14.88;;;;;;;-0.32;100.00;102390.03;4994461;28;20154;-66
2022/03/18 05:18:45;;;;;;;24.90;18.08;;;;;;;-0.77;100.00;102422.44;4994648;28;20490;-67
2022/03/18 05:21:10;;;;;;;36.58;25.30;;;;;;;-0.23;100.00;102419.66;4994301;28;20035;-67
2022/03/18 05:23:37;;;;;;;23.90;17.65;;;;;;;0.47;100.00;102421.78;4994267;28;20045;-65
2022/03/18 05:26:03;;;;;;;22.98;16.02;;;;;;;0.73;95.61;102409.00;4994505;28;20412;-67
2022/03/18 05:28:29;;;;;;;32.80;24.05;;;;;;;0.55;94.77;102428.06;4977080;28;20421;-67
2022/03/18 05:30:55;;;;;;;31.13;22.77;;;;;;;0.96;98.35;102430.16;4994345;28;20542;-66
2022/03/18 05:33:20;;;;;;;47.60;36.40;;;;;;;0.68;98.45;102377.84;4994621;28;20109;-65
2022/03/18 05:35:45;;;;;;;50.88;41.58;;;;;;;1.46;97.54;102401.81;4984904;28;20031;-66
2022/03/18 05:38:11;;;;;;;29.98;25.92;;;;;;;1.74;85.65;102436.56;4977270;28;20389;-67
2022/03/18 05:40:36;;;;;;;29.40;22.38;;;;;;;1.61;81.95;102406.66;4994393;28;20061;-65
2022/03/18 05:43:02;;;;;;;26.67;19.45;;;;;;;1.83;78.65;102406.03;4994520;28;20400;-68
2022/03/18 05:45:27;;;;;;;19.60;12.88;;;;;;;3.45;100.00;102433.28;4996782;28;20477;-66
2022/03/18 05:47:53;;;;;;;20.23;14.40;;;;;;;2.64;83.54;102435.72;5004420;28;20030;-67
2022/03/18 05:50:19;;;;;;;21.27;14.52;;;;;;;2.98;74.40;102429.59;4991500;28;20534;-65
2022/03/18 05:52:45;;;;;;;28.50;18.02;;;;;;;2.60;66.88;102383.63;4991568;28;20035;-66
2022/03/18 05:55:11;;;;;;;11.02;7.68;;;;;;;3.26;62.33;102435.88;4992859;28;20053;-66
2022/03/18 05:57:37;;;;;;;11.73;7.97;;;;;;;2.52;61.23;102441.81;4992072;28;20053;-66
2022/03/18 06:00:03;;;;;;;15.95;9.40;;;;;;;3.29;61.66;102448.53;4992383;28;20489;-66
2022/03/18 06:02:28;;;;;;;10.95;7.90;;;;;;;3.57;60.03;102424.50;5000298;28;20048;-66
2022/03/18 06:04:54;;;;;;;12.95;8.85;;;;;;;2.72;58.41;102410.91;5012644;28;20021;-68
2022/03/18 06:07:19;;;;;;;12.68;8.60;;;;;;;3.14;59.89;102415.25;5013017;28;20117;-67
2022/03/18 06:12:28;;;;;;;15.55;9.80;;;;;;;4.01;57.53;102443.06;5013046;28;20057;-68
2022/03/18 06:14:54;;;;;;;13.80;9.18;;;;;;;4.22;56.90;102415.31;5012939;28;20029;-68
2022/03/18 06:17:20;;;;;;;26.42;14.30;;;;;;;4.26;56.83;102445.69;5012637;28;20033;-67
2022/03/18 06:19:45;;;;;;;30.65;19.45;;;;;;;4.77;55.68;102450.91;5012828;28;20042;-68
2022/03/18 06:22:11;;;;;;;16.20;9.55;;;;;;;3.95;53.89;102432.75;5013378;28;20030;-67
2022/03/18 06:24:37;;;;;;;9.98;7.18;;;;;;;3.41;51.32;102430.56;5013476;28;20026;-67
2022/03/18 06:27:03;;;;;;;10.85;7.47;;;;;;;4.30;53.04;102449.19;5012894;28;20140;-68
2022/03/18 06:29:29;;;;;;;8.70;6.75;;;;;;;3.70;50.97;102416.66;5013066;28;20196;-68
2022/03/18 06:31:55;;;;;;;8.40;6.28;;;;;;;3.89;50.42;102446.75;5012984;28;20124;-67
2022/03/18 06:34:22;;;;;;;8.23;5.80;;;;;;;4.14;50.55;102414.19;5012906;28;20191;-67
2022/03/18 06:36:48;;;;;;;8.82;6.38;;;;;;;4.16;50.38;102443.63;4995441;28;20038;-67
2022/03/18 06:39:14;;;;;;;9.30;6.55;;;;;;;4.10;49.32;102457.66;5013080;28;20415;-68
2022/03/18 06:41:39;;;;;;;9.98;6.93;;;;;;;4.48;49.64;102412.09;5012870;28;20021;-68
2022/03/18 06:44:08;;;;;;;8.93;6.88;;;;;;;3.87;49.15;102454.25;5012749;28;20127;-68
2022/03/18 06:46:34;;;;;;;14.35;8.77;;;;;;;4.14;49.34;102457.00;5012500;28;20025;-67
2022/03/18 06:49:00;;;;;;;11.50;7.80;;;;;;;3.62;49.89;102439.00;5012736;28;20119;-67
2022/03/18 06:51:26;;;;;;;10.70;7.57;;;;;;;3.93;47.98;102433.50;5012756;28;20454;-67
2022/03/18 06:53:51;;;;;;;10.40;7.80;;;;;;;3.65;48.34;102439.09;5012771;28;20460;-67
2022/03/18 06:56:16;;;;;;;11.52;7.30;;;;;;;4.04;48.33;102450.72;4994865;28;20503;-67
2022/03/18 06:58:43;;;;;;;9.15;7.05;;;;;;;4.28;48.39;102436.53;4994996;28;20037;-67
2022/03/18 07:01:09;;;;;;;8.85;6.18;;;;;;;4.34;48.43;102436.78;5012301;28;20052;-66
2022/03/18 07:03:35;;;;;;;8.60;5.90;;;;;;;3.82;47.63;102469.97;5012552;28;20500;-67
2022/03/18 07:06:00;;;;;;;10.73;6.70;;;;;;;5.00;47.58;102427.38;5012490;28;20041;-67
2022/03/18 07:08:25;;;;;;;10.88;6.85;;;;;;;4.91;46.87;102460.66;5012149;28;20052;-67
2022/03/18 07:10:52;;;;;;;8.05;5.85;;;;;;;3.95;48.31;102440.31;5012224;28;20068;-67
2022/03/18 07:13:17;;;;;;;8.57;5.80;;;;;;;4.85;46.07;102410.06;5012263;28;20065;-68
2022/03/18 07:15:43;;;;;;;8.25;5.22;;;;;;;3.69;46.93;102433.41;5011827;28;20068;-66
2022/03/18 07:18:08;;;;;;;8.90;5.88;;;;;;;4.82;46.74;102474.59;5012323;28;20034;-67
2022/03/18 07:20:36;;;;;;;8.77;5.38;;;;;;;4.09;46.21;102473.56;5012141;28;20092;-67
2022/03/18 07:23:15;;;;;;;8.50;5.88;;;;;;;4.74;46.80;102468.44;5011999;28;20026;-67
2022/03/18 07:25:47;;;;;;;11.13;6.15;;;;;;;4.79;46.91;102447.66;5012158;28;20528;-66
2022/03/18 07:28:14;;;;;;;7.90;5.60;;;;;;;4.52;45.89;102454.22;5011284;28;20041;-66
2022/03/18 07:30:42;;;;;;;9.00;6.07;;;;;;;4.57;44.89;102431.72;5011425;28;20053;-67
2022/03/18 07:33:08;;;;;;;11.73;5.78;;;;;;;4.26;46.18;102424.69;5012134;28;20100;-67
2022/03/18 07:35:35;;;;;;;7.65;5.45;;;;;;;4.75;44.98;102418.13;5011922;28;20046;-67
2022/03/18 07:38:02;;;;;;;6.70;5.18;;;;;;;4.84;44.21;102455.38;5011664;28;20079;-67
2022/03/18 07:40:28;;;;;;;8.25;5.40;;;;;;;5.13;44.36;102467.34;5011668;28;20037;-66
2022/03/18 07:42:55;;;;;;;8.73;5.78;;;;;;;6.19;43.38;102441.34;5011256;28;20434;-67
2022/03/18 07:45:26;;;;;;;10.60;5.85;;;;;;;4.64;44.05;102451.28;5011791;28;20041;-66
2022/03/18 07:47:53;;;;;;;7.53;5.35;;;;;;;4.77;42.40;102439.19;5011525;28;20034;-69
2022/03/18 07:50:20;;;;;;;7.20;5.07;;;;;;;5.22;43.12;102450.84;5011494;28;20507;-68
2022/03/18 07:52:50;;;;;;;8.82;5.40;;;;;;;5.04;43.22;102461.97;4993870;28;20518;-67
2022/03/18 07:55:21;;;;;;;8.70;5.22;;;;;;;5.37;42.16;102432.00;5011114;28;20087;-66
2022/03/18 07:57:47;;;;;;;7.78;5.55;;;;;;;5.54;42.34;102451.91;4993942;28;20038;-67
2022/03/18 08:00:14;;;;;;;7.22;5.22;;;;;;;4.79;43.96;102444.28;5011486;28;20095;-66
2022/03/18 08:02:40;;;;;;;8.40;4.97;;;;;;;5.40;43.01;102405.19;5010920;28;20073;-68
2022/03/18 08:05:06;;;;;;;11.63;6.13;;;;;;;6.43;42.76;102453.84;5011298;28;20033;-68
2022/03/18 08:07:33;;;;;;;7.50;5.40;;;;;;;5.99;42.62;102457.56;4993401;28;20110;-67
2022/03/18 08:09:59;;;;;;;8.30;5.43;;;;;;;5.67;41.22;102458.19;5010846;28;20025;-68
2022/03/18 08:12:27;;;;;;;7.22;5.47;;;;;;;5.78;42.00;102455.22;5011259;28;20345;-68
2022/03/18 08:14:53;;;;;;;11.60;5.85;;;;;;;6.77;40.62;102426.16;5011209;28;20030;-68
2022/03/18 08:17:18;;;;;;;8.93;5.35;;;;;;;6.55;40.79;102424.72;5010968;28;20032;-67
2022/03/18 08:19:44;;;;;;;6.40;4.38;;;;;;;5.32;40.28;102415.84;5011275;28;20030;-68
2022/03/18 08:22:09;;;;;;;7.80;5.30;;;;;;;6.29;40.51;102414.69;4993282;28;20029;-68
2022/03/18 08:24:34;;;;;;;7.82;5.63;;;;;;;5.54;40.76;102429.19;5011490;28;20461;-67
2022/03/18 08:27:00;;;;;;;6.45;4.88;;;;;;;5.20;41.67;102447.41;5011087;28;20034;-67
2022/03/18 08:29:25;;;;;;;7.00;4.82;;;;;;;6.37;40.05;102449.47;5010967;28;20108;-67
2022/03/18 08:31:51;;;;;;;8.70;5.03;;;;;;;7.04;40.05;102434.47;5010947;28;20096;-67
2022/03/18 08:34:16;;;;;;;7.15;5.22;;;;;;;6.11;38.92;102435.22;5011079;28;20030;-67
2022/03/18 08:36:42;;;;;;;7.20;5.47;;;;;;;6.56;40.80;102406.22;5010659;28;20484;-67
2022/03/18 08:39:07;;;;;;;6.90;5.47;;;;;;;6.01;40.15;102395.34;5010699;28;20068;-67
2022/03/18 08:41:32;;;;;;;10.85;5.93;;;;;;;6.63;40.84;102428.31;5011229;28;20054;-68
2022/03/18 08:43:58;;;;;;;9.77;5.70;;;;;;;6.78;39.97;102405.97;5011146;28;20479;-69
2022/03/18 08:46:23;;;;;;;6.35;4.95;;;;;;;7.53;39.45;102404.50;5010986;28;20418;-68
2022/03/18 08:48:49;;;;;;;7.38;5.20;;;;;;;6.80;39.71;102411.06;5011075;28;20088;-68
2022/03/18 08:51:16;;;;;;;8.23;5.63;;;;;;;6.25;39.64;102401.13;5010656;28;20034;-67
2022/03/18 08:53:42;;;;;;;8.02;4.75;;;;;;;7.15;39.74;102399.34;5010536;28;20026;-68
2022/03/18 08:56:07;;;;;;;7.03;5.35;;;;;;;6.53;39.16;102421.31;5010688;28;20042;-67
2022/03/18 08:58:33;;;;;;;9.70;6.78;;;;;;;5.89;40.87;102390.81;5010717;28;20083;-68
2022/03/18 09:00:58;;;;;;;8.18;6.10;;;;;;;7.01;39.80;102419.22;5010751;28;20136;-68
2022/03/18 09:03:24;;;;;;;13.15;7.18;;;;;;;6.17;40.37;102414.31;5010704;28;20042;-68
2022/03/18 09:05:49;;;;;;;7.93;5.82;;;;;;;7.17;41.05;102397.72;5010610;28;20034;-68
2022/03/18 09:08:15;;;;;;;8.88;6.00;;;;;;;6.97;40.51;102404.78;5010289;28;20076;-68
2022/03/18 09:10:41;;;;;;;7.78;4.88;;;;;;;6.91;39.43;102399.59;4992919;28;20100;-68
2022/03/18 09:13:07;;;;;;;8.20;5.20;;;;;;;6.98;40.19;102397.25;5010482;28;20416;-68
2022/03/18 09:15:32;;;;;;;7.57;5.15;;;;;;;6.50;39.59;102354.63;5010523;28;20038;-68
2022/03/18 09:17:58;;;;;;;10.30;6.28;;;;;;;6.88;40.94;102387.72;5010541;28;20049;-67
2022/03/18 09:20:24;;;;;;;9.32;5.53;;;;;;;7.72;39.78;102383.00;5010128;28;20030;-68
2022/03/18 09:22:49;;;;;;;8.07;5.70;;;;;;;7.27;39.72;102361.72;5010401;28;20037;-67
2022/03/18 09:25:15;;;;;;;7.45;5.57;;;;;;;7.29;39.07;102382.84;5010443;28;20480;-68
2022/03/18 09:27:41;;;;;;;7.85;5.82;;;;;;;7.75;39.97;102385.59;5010424;28;20488;-67
2022/03/18 09:30:11;;;;;;;7.82;5.53;;;;;;;8.00;39.15;102395.47;5010529;28;20030;-67
2022/03/18 09:32:40;;;;;;;7.30;5.15;;;;;;;7.86;38.25;102361.38;5010622;28;20036;-68
2022/03/18 09:35:06;;;;;;;7.90;5.82;;;;;;;7.03;39.04;102388.09;5010379;28;20026;-69
2022/03/18 09:37:32;;;;;;;8.52;6.03;;;;;;;8.95;39.28;102377.09;5010142;28;20475;-68
2022/03/18 09:39:57;;;;;;;7.97;5.72;;;;;;;7.23;38.93;102347.28;5010213;28;20029;-68
2022/03/18 09:42:23;;;;;;;10.38;5.90;;;;;;;6.60;38.69;102361.66;5010509;28;20454;-68
2022/03/18 09:44:48;;;;;;;6.53;5.00;;;;;;;7.71;39.25;102361.88;5010509;28;20389;-67
2022/03/18 09:47:14;;;;;;;7.38;5.35;;;;;;;8.41;38.54;102382.00;5010250;28;20046;-68
2022/03/18 09:49:44;;;;;;;10.80;5.63;;;;;;;7.32;38.14;102390.47;5010261;28;20069;-68
2022/03/18 09:52:10;;;;;;;7.75;5.40;;;;;;;8.17;38.35;102370.47;5009988;28;20096;-68
2022/03/18 09:54:35;;;;;;;7.88;4.93;;;;;;;9.46;37.55;102337.31;5012959;28;20459;-67
2022/03/18 09:57:02;;;;;;;18.30;9.90;;;;;;;9.28;37.34;102348.84;5013919;28;20472;-68
2022/03/18 09:59:28;;;;;;;6.85;4.70;;;;;;;7.32;38.00;102362.66;5013960;28;20034;-68
2022/03/18 10:02:20;;;;;;;8.38;5.43;;;;;;;7.99;38.21;102386.13;5013609;28;20503;-69
2022/03/18 10:04:57;;;;;;;9.05;6.35;;;;;;;9.19;37.12;102380.00;5013411;28;20495;-69
2022/03/18 10:07:25;;;;;;;8.35;5.95;;;;;;;9.67;37.27;102367.22;5013743;28;20045;-68
2022/03/18 10:10:01;;;;;;;7.57;5.85;;;;;;;8.54;37.02;102358.56;4996087;28;20484;-68
2022/03/18 10:12:28;;;;;;;8.00;5.72;;;;;;;8.61;38.42;102355.34;5013309;28;20037;-68
2022/03/18 10:15:07;;;;;;;7.68;5.40;;;;;;;9.18;37.03;102369.84;5013751;28;20084;-68
2022/03/18 10:17:58;;;;;;;7.60;5.00;;;;;;;9.54;37.09;102365.34;5013176;28;20543;-69
2022/03/18 10:20:36;;;;;;;6.75;4.88;;;;;;;9.05;37.38;102351.00;5008638;28;20053;-68
2022/03/18 10:23:16;;;;;;;7.40;5.35;;;;;;;8.77;36.35;102373.34;5013350;28;20038;-68
2022/03/18 10:25:54;;;;;;;6.10;5.07;;;;;;;8.86;36.49;102338.00;5012659;28;20379;-68
2022/03/18 10:28:43;;;;;;;7.18;5.10;;;;;;;8.57;35.50;102345.09;5013278;28;20113;-69
2022/03/18 10:31:23;;;;;;;7.35;4.80;;;;;;;8.21;35.47;102375.63;5013249;28;20038;-67
2022/03/18 10:37:06;;;;;;;9.30;4.68;;;;;;;8.68;34.53;102348.69;5013100;28;20041;-68
2022/03/18 10:39:37;;;;;;;6.30;4.75;;;;;;;9.89;35.37;102315.88;5013314;28;20116;-69
2022/03/18 10:42:07;;;;;;;6.50;5.18;;;;;;;9.34;36.24;102361.63;5012944;28;20018;-68
2022/03/18 10:44:52;;;;;;;7.80;5.75;;;;;;;10.61;35.76;102366.75;5012661;28;20137;-69
2022/03/18 10:47:42;;;;;;;6.97;5.03;;;;;;;9.01;36.63;102354.34;5012898;28;20121;-69
2022/03/18 10:50:11;;;;;;;8.32;5.90;;;;;;;9.29;36.48;102355.66;5013246;28;20444;-67
2022/03/18 10:52:58;;;;;;;7.20;5.63;;;;;;;9.77;35.69;102353.81;5012551;28;20030;-67
2022/03/18 10:55:36;;;;;;;10.25;6.22;;;;;;;10.10;36.15;102351.72;4997127;28;20045;-67
2022/03/18 10:58:06;;;;;;;7.85;5.93;;;;;;;9.49;35.77;102354.25;5012817;28;20034;-67
2022/03/18 11:00:34;;;;;;;6.60;4.93;;;;;;;9.34;36.92;102321.03;5012587;28;20455;-68
2022/03/18 11:03:01;;;;;;;6.50;5.43;;;;;;;10.05;34.85;102340.63;5012176;28;20108;-68
2022/03/18 11:05:31;;;;;;;6.75;4.97;;;;;;;9.23;35.98;102307.34;5011712;28;20026;-66
2022/03/18 11:07:56;;;;;;;6.55;4.88;;;;;;;11.29;35.73;102324.91;5012567;28;20044;-68
2022/03/18 11:13:08;;;;;;;5.75;4.60;;;;;;;9.52;34.61;102336.53;5012562;28;20151;-68
2022/03/18 11:15:36;;;;;;;6.55;5.25;;;;;;;9.71;35.48;102333.41;5011764;28;20038;-68
2022/03/18 11:18:05;;;;;;;7.80;5.20;;;;;;;10.75;34.97;102338.88;5012134;28;20457;-68
2022/03/18 11:20:42;;;;;;;8.80;4.88;;;;;;;11.13;35.50;102330.72;5011061;28;20034;-67
2022/03/18 11:23:16;;;;;;;6.22;4.90;;;;;;;9.24;33.34;102342.03;5012086;28;20076;-68
2022/03/18 11:25:43;;;;;;;6.53;4.93;;;;;;;9.43;34.47;102341.47;5011743;28;20502;-68
2022/03/18 11:28:14;;;;;;;5.70;4.60;;;;;;;9.17;34.43;102318.22;5011426;28;20077;-68
2022/03/18 11:30:41;;;;;;;7.15;5.35;;;;;;;10.21;35.20;102306.13;5012168;28;20496;-68
2022/03/18 11:33:09;;;;;;;6.85;5.07;;;;;;;11.09;34.49;102339.19;5012012;28;20026;-68
2022/03/18 11:35:47;;;;;;;5.65;4.55;;;;;;;9.79;34.79;102347.06;5011956;28;20567;-68